createdAt,value
2022-08-05T00:01:28.564Z,17.40
2022-08-05T00:03:56.915Z,17.40
2022-08-05T00:06:30.655Z,17.40
2022-08-05T00:09:13.181Z,17.30
2022-08-05T00:11:48.393Z,17.30
2022-08-05T00:14:17.391Z,17.40
2022-08-05T00:16:52.387Z,17.40
2022-08-05T00:19:22.318Z,17.30
2022-08-05T00:21:49.749Z,17.10
2022-08-05T00:24:19.268Z,16.90
2022-08-05T00:26:53.041Z,16.80
2022-08-05T00:29:25.577Z,16.70
2022-08-05T00:32:12.724Z,16.60
2022-08-05T00:34:55.425Z,16.70
2022-08-05T00:37:50.464Z,16.70
2022-08-05T00:40:17.747Z,16.70
2022-08-05T00:42:55.381Z,16.70
2022-08-05T00:45:38.801Z,16.50
2022-08-05T00:48:08.174Z,16.30
2022-08-05T00:50:36.505Z,16.10
2022-08-05T00:53:03.568Z,16.00
2022-08-05T00:55:43.592Z,16.00
2022-08-05T00:58:11.598Z,16.00
2022-08-05T01:00:39.801Z,15.90
2022-08-05T01:03:07.852Z,15.90
2022-08-05T01:05:35.133Z,16.00
2022-08-05T01:08:39.977Z,16.00
2022-08-05T01:10:54.798Z,16.00
2022-08-05T01:13:27.599Z,16.10
2022-08-05T01:16:32.824Z,16.00
2022-08-05T01:19:03.743Z,15.90
2022-08-05T01:21:42.960Z,15.80
2022-08-05T01:24:20.719Z,15.80
2022-08-05T01:26:58.393Z,15.80
2022-08-05T01:29:27.475Z,15.80
2022-08-05T01:32:00.718Z,15.80
2022-08-05T01:34:48.709Z,15.70
2022-08-05T01:37:24.779Z,15.70
2022-08-05T01:39:58.727Z,15.70
2022-08-05T01:42:27.167Z,15.70
2022-08-05T01:44:56.258Z,15.60
2022-08-05T01:47:24.516Z,15.60
2022-08-05T01:50:07.904Z,15.60
2022-08-05T01:52:43.991Z,15.50
2022-08-05T01:55:12.897Z,15.40
2022-08-05T01:58:11.872Z,15.30
2022-08-05T02:00:30.550Z,15.20
2022-08-05T02:03:00.161Z,15.30
2022-08-05T02:05:34.222Z,15.30
2022-08-05T02:08:01.987Z,15.30
2022-08-05T02:10:31.233Z,15.30
2022-08-05T02:13:02.572Z,15.20
2022-08-05T02:15:36.032Z,15.10
2022-08-05T02:18:30.925Z,15.10
2022-08-05T02:21:02.625Z,15.00
2022-08-05T02:23:33.732Z,15.00
2022-08-05T02:26:05.325Z,15.00
2022-08-05T02:28:38.115Z,14.90
2022-08-05T02:31:14.617Z,14.90
2022-08-05T02:33:45.170Z,14.90
2022-08-05T02:36:16.957Z,14.90
2022-08-05T02:38:53.553Z,14.70
2022-08-05T02:41:22.992Z,14.60
2022-08-05T02:44:02.919Z,14.50
2022-08-05T02:46:53.428Z,14.30
2022-08-05T02:49:27.699Z,14.30
2022-08-05T02:52:05.952Z,14.40
2022-08-05T02:54:35.687Z,14.40
2022-08-05T02:57:09.861Z,14.30
2022-08-05T02:59:50.150Z,14.30
2022-08-05T03:02:20.553Z,14.20
2022-08-05T03:04:48.686Z,14.30
2022-08-05T03:07:40.531Z,14.20
2022-08-05T03:10:08.846Z,14.20
2022-08-05T03:12:37.114Z,14.30
2022-08-05T03:15:06.722Z,14.20
2022-08-05T03:17:41.620Z,14.20
2022-08-05T03:20:10.290Z,14.20
2022-08-05T03:22:37.346Z,14.10
2022-08-05T03:25:32.742Z,14.10
2022-08-05T03:28:00.499Z,14.10
2022-08-05T03:30:33.840Z,14.00
2022-08-05T03:33:02.289Z,14.00
2022-08-05T03:35:29.892Z,14.00
2022-08-05T03:38:01.302Z,14.00
2022-08-05T03:40:32.443Z,13.90
2022-08-05T03:43:15.707Z,13.90
2022-08-05T03:45:57.910Z,13.90
2022-08-05T03:48:28.940Z,13.80
2022-08-05T03:52:38.671Z,13.80
2022-08-05T03:55:53.446Z,13.80
2022-08-05T03:56:46.508Z,13.90
2022-08-05T03:59:20.392Z,13.90
2022-08-05T04:01:49.444Z,13.90
2022-08-05T04:04:21.232Z,13.90
2022-08-05T04:06:51.066Z,14.00
2022-08-05T04:09:26.018Z,14.00
2022-08-05T04:11:53.364Z,14.20
2022-08-05T04:14:29.733Z,14.50
2022-08-05T04:16:58.870Z,15.00
2022-08-05T04:19:25.949Z,15.70
2022-08-05T04:22:08.529Z,16.50
2022-08-05T04:24:44.339Z,17.40
2022-08-05T04:27:15.295Z,18.60
2022-08-05T04:29:42.557Z,19.60
2022-08-05T04:32:09.879Z,20.40
2022-08-05T04:34:43.131Z,21.30
2022-08-05T04:37:10.591Z,22.20
2022-08-05T04:39:37.845Z,22.90
2022-08-05T04:42:06.666Z,23.50
2022-08-05T04:44:33.750Z,23.70
2022-08-05T04:47:09.648Z,23.90
2022-08-05T04:49:38.925Z,24.10
2022-08-05T04:52:27.486Z,24.40
2022-08-05T04:54:57.246Z,25.20
2022-08-05T04:57:29.161Z,25.90
2022-08-05T04:59:57.247Z,26.70
2022-08-05T05:02:36.818Z,27.30
2022-08-05T05:05:16.987Z,28.10
2022-08-05T05:08:01.782Z,28.70
2022-08-05T05:10:29.995Z,29.40
2022-08-05T05:12:57.710Z,30.20
2022-08-05T05:15:57.291Z,30.50
2022-08-05T05:18:33.372Z,30.60
2022-08-05T05:21:01.438Z,31.40
2022-08-05T05:23:39.163Z,32.40
2022-08-05T05:26:15.668Z,33.50
2022-08-05T05:28:44.805Z,34.40
2022-08-05T05:31:12.441Z,34.80
2022-08-05T05:33:58.766Z,35.40
2022-08-05T05:36:28.637Z,35.80
2022-08-05T05:38:57.491Z,36.60
2022-08-05T05:41:24.610Z,37.10
2022-08-05T05:43:56.745Z,37.20
2022-08-05T05:46:25.713Z,37.40
2022-08-05T05:48:52.681Z,37.90
2022-08-05T05:51:23.821Z,38.10
2022-08-05T05:53:57.239Z,38.20
2022-08-05T05:56:32.965Z,38.70
2022-08-05T05:59:06.212Z,39.00
2022-08-05T06:01:37.539Z,39.50
2022-08-05T06:04:11.647Z,39.60
2022-08-05T06:06:47.529Z,39.40
2022-08-05T06:09:17.621Z,40.00
2022-08-05T06:12:01.880Z,39.90
2022-08-05T06:14:33.373Z,37.80
2022-08-05T06:17:22.045Z,34.80
2022-08-05T06:19:56.621Z,32.40
2022-08-05T06:22:28.001Z,31.40
2022-08-05T06:24:54.936Z,33.50
2022-08-05T06:28:09.531Z,35.70
2022-08-05T06:30:20.054Z,37.00
2022-08-05T06:32:48.462Z,38.30
2022-08-05T06:36:03.059Z,39.10
2022-08-05T06:38:11.348Z,39.80
2022-08-05T06:40:42.048Z,40.20
2022-08-05T06:43:58.654Z,39.30
2022-08-05T06:46:07.323Z,39.10
2022-08-05T06:48:53.428Z,39.10
2022-08-05T06:51:29.529Z,38.90
2022-08-05T06:54:01.968Z,38.30
2022-08-05T06:56:29.904Z,38.60
2022-08-05T06:59:00.219Z,38.80
2022-08-05T07:01:31.945Z,38.80
2022-08-05T07:04:00.392Z,39.10
2022-08-05T07:06:28.521Z,38.80
2022-08-05T07:08:55.576Z,38.00
2022-08-05T07:11:25.542Z,37.20
2022-08-05T07:14:15.855Z,36.30
2022-08-05T07:17:59.396Z,35.50
2022-08-05T07:22:27.662Z,31.50
2022-08-05T07:24:55.003Z,30.30
2022-08-05T07:27:23.565Z,29.40
2022-08-05T07:30:24.136Z,28.50
2022-08-05T07:32:44.267Z,27.70
2022-08-05T07:36:04.657Z,27.30
2022-08-05T07:38:05.046Z,27.10
2022-08-05T07:40:44.264Z,27.10
2022-08-05T07:43:20.168Z,27.40
2022-08-05T07:45:57.647Z,27.90
2022-08-05T07:49:02.099Z,28.00
2022-08-05T07:51:23.431Z,28.20
2022-08-05T07:54:01.923Z,28.40
2022-08-05T07:57:01.196Z,28.30
2022-08-05T07:59:15.960Z,28.20
2022-08-05T08:01:52.466Z,28.00
2022-08-05T08:04:37.672Z,27.70
2022-08-05T08:07:07.486Z,27.30
2022-08-05T08:09:34.994Z,27.10
2022-08-05T08:12:09.778Z,26.70
2022-08-05T08:14:46.870Z,26.30
2022-08-05T08:17:15.768Z,26.10
2022-08-05T08:20:22.955Z,26.10
2022-08-05T08:22:32.378Z,26.20
2022-08-05T08:25:03.466Z,26.30
2022-08-05T08:27:45.124Z,26.40
2022-08-05T08:30:29.704Z,26.60
2022-08-05T08:33:08.423Z,26.20
2022-08-05T08:35:41.053Z,26.10
2022-08-05T08:38:11.815Z,26.20
2022-08-05T08:40:46.641Z,26.30
2022-08-05T08:44:56.490Z,26.20
2022-08-05T08:46:10.007Z,26.30
2022-08-05T08:49:06.173Z,26.40
2022-08-05T08:52:03.126Z,26.50
2022-08-05T08:54:21.968Z,26.50
2022-08-05T08:56:56.468Z,26.60
2022-08-05T08:59:27.887Z,26.50
2022-08-05T09:02:01.807Z,26.60
2022-08-05T09:04:30.471Z,26.70
2022-08-05T09:06:58.367Z,26.90
2022-08-05T09:09:25.964Z,26.80
2022-08-05T09:12:06.060Z,26.80
2022-08-05T09:14:56.545Z,27.00
2022-08-05T09:17:41.041Z,27.20
2022-08-05T09:20:11.359Z,27.40
2022-08-05T09:23:05.247Z,27.50
2022-08-05T09:26:02.278Z,27.60
2022-08-05T09:28:32.205Z,27.40
2022-08-05T09:31:23.394Z,27.40
2022-08-05T09:33:59.160Z,27.40
2022-08-05T09:36:54.655Z,27.50
2022-08-05T09:39:41.897Z,27.70
2022-08-05T09:42:23.500Z,27.30
2022-08-05T09:44:56.387Z,27.20
2022-08-05T09:47:25.484Z,26.90
2022-08-05T09:50:00.525Z,27.00
2022-08-05T09:52:29.555Z,26.80
2022-08-05T09:55:56.506Z,27.00
2022-08-05T09:58:11.215Z,26.80
2022-08-05T10:00:38.600Z,27.10
2022-08-05T10:03:09.928Z,27.30
2022-08-05T10:05:36.953Z,27.30
2022-08-05T10:08:36.659Z,27.50
2022-08-05T10:10:55.016Z,27.40
2022-08-05T10:13:45.627Z,27.30
2022-08-05T10:16:29.269Z,27.50
2022-08-05T10:18:57.141Z,27.40
2022-08-05T10:21:24.363Z,27.20
2022-08-05T10:23:59.276Z,27.20
2022-08-05T10:26:32.666Z,27.40
2022-08-05T10:29:01.104Z,27.70
2022-08-05T10:32:53.842Z,27.80
2022-08-05T10:34:17.029Z,27.90
2022-08-05T10:36:44.306Z,28.10
2022-08-05T10:39:24.984Z,28.30
2022-08-05T10:42:34.672Z,28.50
2022-08-05T10:45:02.091Z,28.70
2022-08-05T10:48:30.213Z,28.50
2022-08-05T10:50:57.959Z,28.70
2022-08-05T10:53:51.490Z,29.00
2022-08-05T10:56:26.028Z,29.10
2022-08-05T10:58:53.259Z,29.40
2022-08-05T11:01:55.094Z,29.00
2022-08-05T11:04:17.797Z,29.00
2022-08-05T11:07:01.351Z,28.80
2022-08-05T11:09:46.436Z,28.80
2022-08-05T11:12:32.553Z,28.70
2022-08-05T11:15:19.262Z,28.60
2022-08-05T11:17:57.253Z,28.50
2022-08-05T11:20:34.342Z,28.50
2022-08-05T11:23:21.881Z,28.70
2022-08-05T11:26:09.446Z,28.70
2022-08-05T11:28:37.005Z,28.90
2022-08-05T11:31:06.489Z,29.00
2022-08-05T11:33:46.218Z,28.90
2022-08-05T11:36:34.586Z,29.10
2022-08-05T11:39:06.245Z,29.10
2022-08-05T11:42:01.713Z,28.80
2022-08-05T11:44:41.270Z,28.80
2022-08-05T11:47:48.621Z,28.70
2022-08-05T11:50:10.562Z,28.70
2022-08-05T11:52:44.074Z,29.00
2022-08-05T11:55:13.450Z,29.40
2022-08-05T11:58:09.811Z,29.80
2022-08-05T12:00:38.655Z,30.10
2022-08-05T12:03:29.413Z,30.60
2022-08-05T12:06:06.260Z,30.80
2022-08-05T12:08:51.099Z,30.40
2022-08-05T12:11:24.570Z,30.10
2022-08-05T12:14:03.898Z,29.60
2022-08-05T12:16:38.494Z,28.90
2022-08-05T12:19:06.643Z,28.60
2022-08-05T12:21:39.049Z,28.70
2022-08-05T12:24:07.727Z,28.90
2022-08-05T12:26:36.234Z,29.20
2022-08-05T12:29:09.738Z,29.30
2022-08-05T12:31:53.628Z,29.50
2022-08-05T12:34:28.765Z,29.70
2022-08-05T12:36:56.908Z,29.90
2022-08-05T12:39:34.534Z,30.00
2022-08-05T12:42:26.792Z,30.30
2022-08-05T12:45:01.285Z,30.70
2022-08-05T12:47:30.746Z,31.00
2022-08-05T12:50:05.336Z,30.70
2022-08-05T12:52:38.740Z,30.60
2022-08-05T12:55:23.493Z,30.60
2022-08-05T12:58:48.829Z,30.20
2022-08-05T13:02:01.664Z,29.80
2022-08-05T13:03:32.346Z,29.80
2022-08-05T13:06:01.064Z,30.00
2022-08-05T13:08:32.356Z,30.30
2022-08-05T13:11:01.495Z,30.30
2022-08-05T13:14:06.007Z,29.90
2022-08-05T13:16:16.889Z,29.70
2022-08-05T13:18:58.483Z,29.90
2022-08-05T13:21:27.772Z,30.10
2022-08-05T13:23:55.019Z,30.40
2022-08-05T13:26:27.240Z,30.30
2022-08-05T13:28:57.625Z,30.20
2022-08-05T13:31:33.992Z,30.00
2022-08-05T13:34:22.767Z,30.20
2022-08-05T13:36:53.238Z,30.40
2022-08-05T13:40:14.449Z,30.60
2022-08-05T13:42:07.767Z,30.80
2022-08-05T13:44:45.419Z,30.90
2022-08-05T13:47:28.070Z,31.00
2022-08-05T13:50:04.785Z,31.10
2022-08-05T13:52:37.512Z,31.20
2022-08-05T13:55:07.519Z,31.30
2022-08-05T13:57:51.173Z,31.30
2022-08-05T14:00:26.778Z,31.40
2022-08-05T14:02:57.918Z,31.50
2022-08-05T14:05:47.904Z,31.30
2022-08-05T14:08:20.826Z,30.90
2022-08-05T14:10:54.442Z,30.40
2022-08-05T14:13:30.444Z,30.60
2022-08-05T14:16:05.116Z,30.70
2022-08-05T14:18:37.963Z,30.70
2022-08-05T14:22:07.137Z,30.60
2022-08-05T14:23:52.136Z,30.50
2022-08-05T14:26:36.784Z,30.60
2022-08-05T14:29:16.244Z,30.50
2022-08-05T14:32:02.132Z,30.20
2022-08-05T14:34:35.216Z,29.90
2022-08-05T14:37:03.469Z,30.00
2022-08-05T14:39:49.821Z,30.00
2022-08-05T14:42:22.495Z,30.00
2022-08-05T14:44:52.063Z,29.90
2022-08-05T14:48:02.659Z,29.90
2022-08-05T14:50:17.406Z,30.10
2022-08-05T14:52:53.060Z,30.10
2022-08-05T14:55:20.822Z,29.80
2022-08-05T14:57:54.360Z,29.70
2022-08-05T15:00:28.050Z,29.60
2022-08-05T15:02:56.697Z,29.50
2022-08-05T15:05:29.836Z,29.50
2022-08-05T15:08:38.012Z,29.50
2022-08-05T15:11:00.667Z,29.50
2022-08-05T15:13:45.061Z,29.30
2022-08-05T15:16:13.890Z,29.40
2022-08-05T15:18:41.286Z,29.00
2022-08-05T15:21:08.859Z,28.60
2022-08-05T15:23:35.819Z,28.60
2022-08-05T15:26:05.144Z,28.80
2022-08-05T15:28:34.591Z,28.30
2022-08-05T15:31:03.670Z,27.40
2022-08-05T15:34:05.630Z,27.20
2022-08-05T15:36:25.526Z,27.10
2022-08-05T15:40:39.724Z,27.20
2022-08-05T15:41:55.731Z,27.40
2022-08-05T15:44:24.476Z,27.50
2022-08-05T15:46:53.047Z,27.40
2022-08-05T15:49:52.021Z,27.50
2022-08-05T15:52:16.180Z,27.70
2022-08-05T15:54:43.767Z,28.00
2022-08-05T15:57:11.481Z,28.20
2022-08-05T15:59:42.331Z,28.20
2022-08-05T16:02:14.435Z,28.00
2022-08-05T16:04:42.501Z,27.80
2022-08-05T16:07:10.581Z,27.60
2022-08-05T16:09:41.553Z,27.40
2022-08-05T16:12:09.378Z,27.30
2022-08-05T16:14:38.393Z,27.20
2022-08-05T16:17:05.544Z,27.00
2022-08-05T16:20:03.076Z,27.00
2022-08-05T16:22:24.323Z,26.90
2022-08-05T16:24:54.989Z,26.80
2022-08-05T16:27:46.831Z,26.80
2022-08-05T16:30:25.827Z,26.80
2022-08-05T16:32:54.979Z,26.80
2022-08-05T16:35:28.083Z,26.80
2022-08-05T16:38:16.051Z,26.70
2022-08-05T16:40:51.668Z,26.70
2022-08-05T16:43:23.885Z,26.70
2022-08-05T16:46:04.377Z,26.80
2022-08-05T16:48:36.872Z,26.80
2022-08-05T16:51:09.853Z,26.80
2022-08-05T16:54:05.179Z,26.60
2022-08-05T16:56:26.151Z,26.30
2022-08-05T16:58:53.175Z,25.90
2022-08-05T17:01:20.559Z,25.70
2022-08-05T17:03:47.799Z,25.60
2022-08-05T17:06:18.526Z,25.50
2022-08-05T17:08:53.645Z,25.40
2022-08-05T17:11:25.762Z,25.40
2022-08-05T17:14:05.337Z,25.40
2022-08-05T17:16:35.974Z,25.40
2022-08-05T17:19:07.887Z,25.40
2022-08-05T17:21:37.246Z,25.40
2022-08-05T17:24:14.310Z,25.50
2022-08-05T17:26:47.457Z,25.60
2022-08-05T17:29:14.865Z,25.60
2022-08-05T17:31:59.031Z,25.50
2022-08-05T17:34:29.795Z,25.50
2022-08-05T17:36:59.983Z,25.40
2022-08-05T17:39:34.162Z,25.50
2022-08-05T17:42:17.737Z,25.50
2022-08-05T17:44:50.263Z,25.40
2022-08-05T17:47:24.759Z,25.30
2022-08-05T17:50:04.036Z,25.20
2022-08-05T17:52:53.152Z,25.20
2022-08-05T17:55:27.435Z,25.10
2022-08-05T17:58:07.202Z,25.20
2022-08-05T18:00:40.786Z,25.10
2022-08-05T18:03:39.367Z,25.00
2022-08-05T18:06:11.331Z,25.00
2022-08-05T18:08:40.556Z,24.90
2022-08-05T18:11:11.543Z,24.90
2022-08-05T18:13:52.450Z,24.70
2022-08-05T18:16:20.333Z,24.60
2022-08-05T18:18:49.951Z,24.50
2022-08-05T18:21:21.375Z,24.40
2022-08-05T18:23:53.690Z,24.30
2022-08-05T18:26:22.015Z,24.10
2022-08-05T18:28:57.061Z,24.10
2022-08-05T18:31:24.359Z,24.00
2022-08-05T18:33:52.009Z,24.00
2022-08-05T18:36:19.460Z,24.00
2022-08-05T18:38:46.674Z,23.90
2022-08-05T18:41:57.877Z,23.90
2022-08-05T18:44:05.788Z,23.90
2022-08-05T18:46:34.850Z,23.80
2022-08-05T18:49:21.603Z,23.70
2022-08-05T18:52:08.850Z,23.70
2022-08-05T18:54:41.111Z,23.60
2022-08-05T18:57:09.818Z,23.50
2022-08-05T19:00:02.329Z,23.40
2022-08-05T19:02:29.734Z,23.40
2022-08-05T19:05:02.375Z,23.30
2022-08-05T19:07:46.529Z,23.20
2022-08-05T19:10:17.568Z,23.10
2022-08-05T19:12:46.286Z,23.10
2022-08-05T19:15:56.676Z,23.10
2022-08-05T19:18:09.138Z,23.00
2022-08-05T19:20:37.067Z,22.90
2022-08-05T19:23:08.875Z,22.80
2022-08-05T19:26:01.841Z,22.80
2022-08-05T19:28:34.823Z,22.80
2022-08-05T19:31:05.807Z,22.80
2022-08-05T19:33:36.831Z,22.90
2022-08-05T19:36:07.351Z,22.90
2022-08-05T19:38:36.448Z,22.90
2022-08-05T19:41:07.402Z,22.90
2022-08-05T19:44:06.462Z,22.90
2022-08-05T19:46:29.741Z,23.00
2022-08-05T19:49:02.885Z,23.00
2022-08-05T19:52:08.461Z,22.80
2022-08-05T19:54:25.594Z,22.50
2022-08-05T19:56:58.067Z,22.30
2022-08-05T19:59:56.429Z,22.10
2022-08-05T20:02:13.323Z,21.70
2022-08-05T20:04:43.155Z,21.20
2022-08-05T20:07:13.756Z,20.80
2022-08-05T20:09:54.476Z,20.10
2022-08-05T20:12:23.732Z,19.40
2022-08-05T20:14:52.251Z,18.70
2022-08-05T20:17:23.477Z,18.20
2022-08-05T20:19:57.368Z,17.90
2022-08-05T20:22:27.238Z,17.70
2022-08-05T20:24:55.410Z,17.50
2022-08-05T20:27:26.993Z,17.40
2022-08-05T20:29:58.401Z,17.40
2022-08-05T20:32:26.777Z,17.30
2022-08-05T20:34:54.382Z,17.30
2022-08-05T20:38:05.039Z,17.30
2022-08-05T20:40:08.915Z,17.40
2022-08-05T20:42:36.081Z,17.60
2022-08-05T20:45:04.232Z,17.80
2022-08-05T20:47:33.233Z,17.90
2022-08-05T20:50:02.185Z,18.00
2022-08-05T20:52:29.964Z,17.90
2022-08-05T20:55:15.953Z,17.90
2022-08-05T20:57:45.132Z,17.60
2022-08-05T21:00:41.479Z,17.00
2022-08-05T21:03:06.140Z,16.80
2022-08-05T21:05:47.883Z,16.60
2022-08-05T21:08:26.505Z,16.70
2022-08-05T21:11:00.637Z,16.40
2022-08-05T21:13:56.018Z,16.30
2022-08-05T21:16:19.608Z,16.30
2022-08-05T21:18:46.481Z,16.50
2022-08-05T21:21:14.970Z,16.60
2022-08-05T21:23:42.696Z,16.50
2022-08-05T21:26:14.273Z,16.50
2022-08-05T21:28:47.890Z,16.70
2022-08-05T21:31:18.393Z,16.80
2022-08-05T21:33:47.778Z,16.90
2022-08-05T21:36:19.130Z,16.90
2022-08-05T21:38:54.900Z,16.90
2022-08-05T21:41:21.888Z,16.70
2022-08-05T21:44:01.704Z,16.70
2022-08-05T21:46:31.341Z,16.70
2022-08-05T21:48:59.912Z,16.70
2022-08-05T21:52:26.832Z,16.80
2022-08-05T21:54:14.057Z,16.90
2022-08-05T21:56:44.247Z,16.80
2022-08-05T21:59:24.423Z,16.90
2022-08-05T22:01:54.591Z,17.00
2022-08-05T22:04:25.457Z,16.90
2022-08-05T22:06:52.874Z,16.90
2022-08-05T22:09:21.590Z,16.80
2022-08-05T22:11:49.367Z,16.80
2022-08-05T22:14:35.359Z,16.70
2022-08-05T22:17:06.415Z,16.80
2022-08-05T22:20:02.937Z,16.80
2022-08-05T22:22:27.418Z,16.60
2022-08-05T22:25:14.568Z,16.50
2022-08-05T22:28:08.771Z,16.50
2022-08-05T22:30:44.318Z,16.60
2022-08-05T22:33:56.593Z,16.50
2022-08-05T22:36:14.772Z,16.30
2022-08-05T22:38:43.138Z,16.20
2022-08-05T22:41:10.404Z,16.10
2022-08-05T22:43:38.295Z,16.00
2022-08-05T22:46:12.183Z,15.80
2022-08-05T22:48:50.090Z,15.70
2022-08-05T22:51:22.667Z,15.70
2022-08-05T22:53:56.929Z,15.80
2022-08-05T22:56:30.068Z,15.90
2022-08-05T22:59:00.129Z,16.00
2022-08-05T23:02:04.930Z,16.00
2022-08-05T23:04:18.911Z,16.00
2022-08-05T23:06:46.186Z,16.10
2022-08-05T23:09:27.682Z,16.10
2022-08-05T23:12:02.712Z,16.20
2022-08-05T23:14:32.199Z,16.30
2022-08-05T23:17:24.450Z,16.30
2022-08-05T23:20:00.653Z,16.30
2022-08-05T23:22:29.274Z,16.30
2022-08-05T23:24:57.936Z,16.20
2022-08-05T23:27:28.784Z,16.30
2022-08-05T23:30:00.944Z,16.30
2022-08-05T23:32:28.275Z,16.40
2022-08-05T23:34:56.046Z,16.50
2022-08-05T23:37:23.207Z,16.50
2022-08-05T23:39:54.828Z,16.50
2022-08-05T23:42:29.182Z,16.60
2022-08-05T23:44:57.189Z,16.50
2022-08-05T23:47:25.001Z,16.50
2022-08-05T23:49:56.330Z,16.50
2022-08-05T23:52:27.486Z,16.50
2022-08-05T23:54:56.889Z,16.40
2022-08-05T23:57:24.880Z,16.30
